createdAt,value
2023-02-23T00:06:35.020Z,98177.75
2023-02-23T00:26:37.706Z,98169.16
2023-02-23T00:46:40.315Z,98164.69
2023-02-23T01:06:43.736Z,98162.06
2023-02-23T01:26:46.577Z,98156.56
2023-02-23T01:46:53.061Z,98152.66
2023-02-23T02:06:56.642Z,98135.75
2023-02-23T04:09:17.614Z,98088.56
2023-02-23T04:29:20.587Z,98090.06
2023-02-23T04:49:25.789Z,98079.38
2023-02-23T05:09:42.529Z,98079.38
2023-02-23T05:30:06.806Z,98076.97
2023-02-23T07:32:02.906Z,98099.78
2023-02-23T08:53:16.984Z,98080.03
2023-02-23T10:55:04.544Z,98022.13
2023-02-23T11:15:07.081Z,98008.84
2023-02-23T11:35:09.744Z,97988.91
2023-02-23T11:55:12.288Z,97972.34
2023-02-23T12:15:15.906Z,97964.09
2023-02-23T12:35:18.675Z,97946.53
2023-02-23T12:55:21.291Z,97923.31
2023-02-23T13:15:24.827Z,97907.97
2023-02-23T13:35:27.350Z,97878.69
2023-02-23T13:55:43.279Z,97860.25
2023-02-23T14:15:54.756Z,97836.72
2023-02-23T14:35:57.481Z,97825.69
2023-02-23T14:55:59.939Z,97806.31
2023-02-23T15:16:02.693Z,97801.47
2023-02-23T15:36:05.594Z,97795.44
2023-02-23T15:56:08.037Z,97767.87
2023-02-23T16:16:12.699Z,97760.59
2023-02-23T16:36:15.529Z,97762.66
2023-02-23T17:57:16.697Z,97745.16
2023-02-23T18:57:51.900Z,97700.41
2023-02-23T19:17:55.579Z,97696.91
2023-02-23T19:37:59.461Z,97672.88
2023-02-23T19:58:02.257Z,97671.88
2023-02-23T20:18:04.863Z,97656.72
2023-02-23T20:38:07.342Z,97653.94
2023-02-23T20:58:10.078Z,97631.34
2023-02-23T21:18:12.611Z,97612.62
2023-02-23T21:38:15.076Z,97598.91
2023-02-23T21:58:17.631Z,97586.00
2023-02-23T22:18:20.197Z,97562.56
2023-02-23T22:38:22.608Z,97554.91
2023-02-23T22:58:25.689Z,97544.78
2023-02-23T23:18:29.415Z,97533.16
2023-02-23T23:38:34.106Z,97509.56
2023-02-23T23:58:36.847Z,97487.88
